Ash Ridge, Ohio
Current Conditions -  °F | °C
As of 10:15 PM on Saturday 22 Nov 2014 (Local Time) from KFGX Reporting Station
Clear Clear  
Wind Chill: 47°   Ceiling: Unl
Heat Index: 47°   Visibility: 10mi
Dew Point: 30°   Wind: 3mph
Humidity: 50%   Direction: 190°S
Pressure: 30.13"   Gusts: NA
Location:  38.8698°N, 83.9081°W
Report Text: KFGX 230315Z AUTO 19003KT 10SM CLR 09/M01 A3013 RMK AO2 T00851013
Loading
Personal Weather Stations






























Interactive Weather Map New forecast layout! Learn more

10-Day Weather Forecast

Advertisements
Track Severe Weather on mobile